Time;durP1;ratioP1;P1;durP2;ratioP2;P2;SDS_P1;SDS_P2;PMS_P1;PMS_P2;Temp;Humidity;BMP_temperature;BMP_pressure;BME280_temperature;BME280_humidity;BME280_pressure;Samples;Min_cycle;Max_cycle;Signal;HPM_P1;HPM_P2
2022/01/28 00:00:32;;;;;;;8.52;4.63;;;;;;;;;;5012912;28;20664;-70
2022/01/28 00:03:06;;;;;;;7.63;4.60;;;;;;;;;;5023813;28;20441;-68
2022/01/28 00:05:34;;;;;;;4.88;3.78;;;;;;;;;;5024036;28;20076;-69
2022/01/28 00:08:00;;;;;;;5.97;3.35;;;;;;;;;;5028355;28;20025;-69
2022/01/28 00:10:28;;;;;;;5.20;3.67;;;;;;;;;;5025606;28;20053;-69
2022/01/28 00:15:29;;;;;;;5.50;3.85;;;;;;;;;;5025578;28;20042;-68
2022/01/28 00:39:45;;;;;;;;;;;;;;;;;;5026889;28;20037;-70
2022/01/28 00:42:11;;;;;;;9.10;3.90;;;;;;;;;;5031137;28;20059;-72
2022/01/28 00:44:38;;;;;;;6.00;3.60;;;;;;;;;;5030275;28;20045;-68
2022/01/28 00:47:04;;;;;;;3.63;3.00;;;;;;;;;;5030887;28;20018;-69
2022/01/28 00:49:30;;;;;;;8.45;3.50;;;;;;;;;;5029343;28;20032;-68
2022/01/28 00:51:56;;;;;;;6.00;3.72;;;;;;;;;;5031099;28;20030;-70
2022/01/28 00:54:23;;;;;;;7.07;3.63;;;;;;;;;;5030550;28;20597;-68
2022/01/28 00:56:49;;;;;;;4.72;4.07;;;;;;;;;;5029886;28;20033;-70
2022/01/28 00:59:16;;;;;;;5.15;3.45;;;;;;;;;;5028645;28;20038;-68
2022/01/28 01:01:42;;;;;;;7.97;3.72;;;;;;;;;;5028329;28;20026;-68
2022/01/28 01:04:09;;;;;;;7.68;4.15;;;;;;;;;;5027089;28;20034;-67
2022/01/28 01:06:35;;;;;;;6.43;4.68;;;;;;;;;;5027816;28;20252;-68
2022/01/28 01:09:01;;;;;;;7.55;4.70;;;;;;;;;;5030074;28;20087;-68
2022/01/28 01:11:28;;;;;;;8.52;5.25;;;;;;;;;;5030460;28;20028;-69
2022/01/28 01:13:55;;;;;;;4.70;4.15;;;;;;;;;;5028122;28;20653;-68
2022/01/28 01:16:39;;;;;;;8.55;4.82;;;;;;;;;;5027939;28;20619;-68
2022/01/28 01:21:40;;;;;;;7.63;4.82;;;;;;;;;;5030072;28;20374;-68
2022/01/28 01:24:08;;;;;;;8.82;5.38;;;;;;;;;;5029508;28;20029;-69
2022/01/28 01:26:38;;;;;;;8.30;4.30;;;;;;;;;;5028021;28;20044;-68
2022/01/28 01:29:12;;;;;;;7.80;4.90;;;;;;;;;;5027445;28;20026;-68
2022/01/28 01:31:41;;;;;;;6.38;4.22;;;;;;;;;;5026758;28;20026;-68
2022/01/28 01:34:14;;;;;;;5.55;3.70;;;;;;;;;;5028811;28;20400;-69
2022/01/28 01:36:41;;;;;;;6.95;3.80;;;;;;;;;;5029994;28;20424;-67
2022/01/28 01:39:08;;;;;;;5.07;3.85;;;;;;;;;;5027476;28;20104;-72
2022/01/28 01:41:43;;;;;;;6.72;4.10;;;;;;;;;;5029994;28;20060;-68
2022/01/28 01:51:59;;;;;;;;;;;;;;;;;;5026895;28;20033;-68
2022/01/28 01:52:30;;;;;;;5.80;3.88;;;;;;;;;;5026008;28;20036;-73
2022/01/28 01:54:56;;;;;;;5.90;3.90;;;;;;;;;;5029286;28;20096;-68
2022/01/28 01:57:22;;;;;;;4.72;3.78;;;;;;;;;;5027332;28;20363;-68
2022/01/28 01:59:49;;;;;;;5.65;4.03;;;;;;;;;;5028449;28;20041;-70
2022/01/28 02:02:15;;;;;;;8.00;3.67;;;;;;;;;;5028091;28;20362;-68
2022/01/28 02:04:41;;;;;;;5.82;3.60;;;;;;;;;;5026900;28;20037;-71
2022/01/28 02:07:08;;;;;;;7.10;3.35;;;;;;;;;;5026695;28;20018;-70
2022/01/28 02:09:34;;;;;;;3.70;3.28;;;;;;;;;;5025387;28;20025;-69
2022/01/28 02:12:01;;;;;;;5.95;3.90;;;;;;;;;;5028897;28;20473;-68
2022/01/28 02:14:27;;;;;;;4.70;3.65;;;;;;;;;;5029004;28;20055;-70
2022/01/28 02:16:53;;;;;;;5.65;4.25;;;;;;;;;;5028632;28;20103;-68
2022/01/28 02:19:19;;;;;;;3.92;3.05;;;;;;;;;;5027203;28;20029;-68
2022/01/28 02:21:49;;;;;;;3.95;3.47;;;;;;;;;;5026118;28;20032;-68
2022/01/28 02:24:19;;;;;;;5.68;3.50;;;;;;;;;;5026309;28;20476;-68
2022/01/28 02:26:45;;;;;;;5.22;3.85;;;;;;;;;;5024081;28;20112;-68
2022/01/28 02:29:15;;;;;;;7.00;3.65;;;;;;;;;;5025086;28;20021;-68
2022/01/28 02:31:42;;;;;;;6.30;3.67;;;;;;;;;;5025927;28;20029;-68
2022/01/28 02:34:11;;;;;;;6.30;3.33;;;;;;;;;;5029149;28;20064;-68
2022/01/28 02:36:38;;;;;;;6.72;3.00;;;;;;;;;;5027801;28;20017;-68
2022/01/28 02:39:05;;;;;;;8.82;3.10;;;;;;;;;;5027863;28;20496;-68
2022/01/28 02:41:36;;;;;;;7.47;3.60;;;;;;;;;;5025810;28;20103;-68
2022/01/28 02:46:34;;;;;;;6.15;3.10;;;;;;;;;;5023705;28;20102;-69
2022/01/28 02:49:07;;;;;;;3.80;3.08;;;;;;;;;;5028213;28;20017;-68
2022/01/28 02:51:33;;;;;;;5.05;3.03;;;;;;;;;;5027068;28;20029;-69
2022/01/28 02:54:11;;;;;;;3.65;2.90;;;;;;;;;;5030198;28;20461;-68
2022/01/28 02:56:39;;;;;;;5.47;3.15;;;;;;;;;;5030217;28;20049;-68
2022/01/28 02:59:06;;;;;;;7.88;3.78;;;;;;;;;;5026007;28;20469;-68
2022/01/28 03:01:32;;;;;;;6.03;3.15;;;;;;;;;;5029117;28;20171;-68
2022/01/28 03:04:01;;;;;;;4.63;3.13;;;;;;;;;;5027583;28;20032;-69
2022/01/28 03:06:27;;;;;;;3.92;3.40;;;;;;;;;;5028718;28;20113;-69
2022/01/28 03:08:59;;;;;;;9.85;3.70;;;;;;;;;;5030359;28;20035;-68
2022/01/28 03:11:43;;;;;;;7.05;4.30;;;;;;;;;;5023608;28;20022;-69
2022/01/28 03:14:33;;;;;;;5.72;4.00;;;;;;;;;;5030161;28;20563;-68
2022/01/28 03:19:29;;;;;;;4.50;3.53;;;;;;;;;;5025538;28;20037;-69
2022/01/28 03:21:57;;;;;;;5.88;3.92;;;;;;;;;;5029505;28;20593;-68
2022/01/28 03:24:24;;;;;;;6.53;3.58;;;;;;;;;;5029632;28;20025;-69
2022/01/28 03:26:54;;;;;;;4.00;3.60;;;;;;;;;;5029815;28;20108;-68
2022/01/28 03:29:20;;;;;;;5.80;3.92;;;;;;;;;;5024450;28;20030;-68
2022/01/28 03:31:46;;;;;;;5.88;4.50;;;;;;;;;;5026603;28;20432;-68
2022/01/28 03:34:13;;;;;;;7.18;4.60;;;;;;;;;;5026456;28;20523;-69
2022/01/28 03:36:39;;;;;;;6.05;4.82;;;;;;;;;;5028612;28;20026;-68
2022/01/28 03:39:08;;;;;;;6.38;4.05;;;;;;;;;;5029984;28;20030;-68
2022/01/28 03:41:34;;;;;;;7.40;4.05;;;;;;;;;;5029851;28;20022;-68
2022/01/28 03:44:00;;;;;;;6.60;4.05;;;;;;;;;;5028288;28;20033;-68
2022/01/28 03:46:27;;;;;;;7.35;3.83;;;;;;;;;;5027891;28;20017;-68
2022/01/28 03:48:54;;;;;;;6.32;3.88;;;;;;;;;;5029899;28;20032;-68
2022/01/28 03:51:20;;;;;;;4.97;3.83;;;;;;;;;;5029754;28;20014;-68
2022/01/28 03:53:46;;;;;;;4.72;3.60;;;;;;;;;;5027796;28;20018;-68
2022/01/28 03:56:13;;;;;;;6.72;3.72;;;;;;;;;;5028765;28;20063;-68
2022/01/28 03:58:39;;;;;;;4.47;3.22;;;;;;;;;;5031819;28;20098;-69
2022/01/28 04:01:12;;;;;;;4.47;2.83;;;;;;;;;;5033299;28;20083;-68
2022/01/28 04:03:46;;;;;;;3.55;2.63;;;;;;;;;;5023095;28;20057;-68
2022/01/28 04:11:44;;;;;;;4.30;2.40;;;;;;;;;;5006797;28;20087;-68
2022/01/28 04:14:21;;;;;;;5.40;2.80;;;;;;;;;;5011747;28;20452;-68
2022/01/28 04:19:32;;;;;;;4.18;2.95;;;;;;;;;;5005556;28;20381;-68
2022/01/28 04:21:58;;;;;;;5.10;2.90;;;;;;;;;;5003319;28;20018;-68
2022/01/28 04:24:24;;;;;;;6.63;2.97;;;;;;;;;;5005098;28;20038;-68
2022/01/28 04:26:51;;;;;;;5.80;3.33;;;;;;;;;;5023464;28;20036;-69
2022/01/28 04:29:17;;;;;;;3.60;3.13;;;;;;;;;;5021864;28;20033;-69
2022/01/28 04:31:46;;;;;;;9.57;3.60;;;;;;;;;;5022973;28;20036;-69
2022/01/28 04:34:13;;;;;;;6.00;3.92;;;;;;;;;;5022655;28;20037;-68
2022/01/28 04:36:51;;;;;;;4.32;3.42;;;;;;;;;;5023185;28;20405;-68
2022/01/28 04:39:33;;;;;;;4.50;3.40;;;;;;;;;;5019367;28;20034;-68
2022/01/28 04:47:31;;;;;;;;;;;;;;;;;;5023374;28;20037;-71
2022/01/28 04:52:54;;;;;;;5.43;3.30;;;;;;;;;;5020903;28;20402;-68
2022/01/28 05:00:55;;;;;;;5.00;3.30;;;;;;;;;;5020669;28;19920;-68
2022/01/28 05:14:11;;;;;;;5.35;2.90;;;;;;;;;;5021980;28;20505;-69
2022/01/28 05:27:27;;;;;;;4.18;2.60;;;;;;;;;;5021314;28;20030;-68
2022/01/28 05:29:53;;;;;;;3.50;2.75;;;;;;;;;;5021845;28;20033;-69
2022/01/28 05:32:19;;;;;;;2.97;2.50;;;;;;;;;;5019513;28;20021;-69
2022/01/28 05:34:47;;;;;;;3.95;3.00;;;;;;;;;;5021398;28;20033;-69
2022/01/28 05:37:13;;;;;;;4.75;2.80;;;;;;;;;;5020433;28;20025;-69
2022/01/28 05:39:39;;;;;;;3.33;2.60;;;;;;;;;;5021663;28;20052;-69
2022/01/28 05:42:05;;;;;;;3.35;2.30;;;;;;;;;;5020569;28;20032;-69
2022/01/28 05:44:31;;;;;;;4.32;2.63;;;;;;;;;;5021799;28;20040;-69
2022/01/28 05:47:02;;;;;;;5.20;2.78;;;;;;;;;;5021124;28;20033;-70
2022/01/28 05:49:28;;;;;;;7.35;2.78;;;;;;;;;;5021457;28;20029;-69
2022/01/28 05:51:54;;;;;;;6.72;2.65;;;;;;;;;;5020154;28;20033;-69
2022/01/28 05:54:21;;;;;;;5.65;2.85;;;;;;;;;;5021583;28;20021;-69
2022/01/28 05:56:47;;;;;;;3.83;2.90;;;;;;;;;;5021425;28;20030;-69
2022/01/28 05:59:13;;;;;;;5.50;2.60;;;;;;;;;;5021024;28;20065;-69
2022/01/28 06:01:39;;;;;;;3.03;2.45;;;;;;;;;;5021349;28;20025;-69
2022/01/28 06:04:05;;;;;;;4.20;2.40;;;;;;;;;;5020890;28;20041;-69
2022/01/28 06:06:32;;;;;;;4.25;2.85;;;;;;;;;;5020567;28;20425;-68
2022/01/28 06:08:59;;;;;;;4.38;2.55;;;;;;;;;;5020550;28;20029;-69
2022/01/28 06:11:25;;;;;;;4.63;2.70;;;;;;;;;;5024022;28;20025;-69
2022/01/28 06:13:51;;;;;;;5.68;2.85;;;;;;;;;;5021444;28;20541;-73
2022/01/28 06:16:18;;;;;;;6.88;2.90;;;;;;;;;;5023120;28;20086;-68
2022/01/28 06:18:45;;;;;;;4.60;2.55;;;;;;;;;;5022712;28;20426;-68
2022/01/28 06:21:12;;;;;;;4.32;2.53;;;;;;;;;;5022586;28;20052;-68
2022/01/28 06:23:38;;;;;;;3.90;2.97;;;;;;;;;;5021886;28;20041;-68
2022/01/28 06:26:05;;;;;;;3.30;2.30;;;;;;;;;;5022103;28;20025;-68
2022/01/28 06:28:31;;;;;;;3.95;2.80;;;;;;;;;;5021026;28;20103;-68
2022/01/28 06:30:57;;;;;;;3.17;2.45;;;;;;;;;;5021843;28;20021;-71
2022/01/28 06:33:24;;;;;;;3.05;2.47;;;;;;;;;;5021521;28;20045;-72
2022/01/28 06:35:50;;;;;;;4.65;2.00;;;;;;;;;;5022632;28;20030;-69
2022/01/28 06:38:16;;;;;;;3.85;2.33;;;;;;;;;;5021960;28;20128;-69
2022/01/28 06:40:43;;;;;;;3.75;2.50;;;;;;;;;;5020986;28;20026;-69
2022/01/28 06:43:10;;;;;;;5.03;3.13;;;;;;;;;;5022541;28;20031;-68
2022/01/28 06:45:36;;;;;;;3.95;2.80;;;;;;;;;;5022061;28;20029;-68
2022/01/28 06:48:03;;;;;;;3.50;2.78;;;;;;;;;;5022635;28;20079;-68
2022/01/28 06:50:29;;;;;;;5.47;3.40;;;;;;;;;;5020495;28;20040;-68
2022/01/28 06:52:55;;;;;;;6.00;3.92;;;;;;;;;;5022579;28;20051;-68
2022/01/28 06:55:21;;;;;;;5.82;3.70;;;;;;;;;;5022181;28;20032;-68
2022/01/28 06:57:47;;;;;;;6.30;4.20;;;;;;;;;;5022274;28;20083;-69
2022/01/28 07:00:15;;;;;;;7.32;3.92;;;;;;;;;;5020278;28;20063;-69
2022/01/28 07:02:41;;;;;;;7.30;4.55;;;;;;;;;;5022426;28;20026;-68
2022/01/28 07:05:07;;;;;;;9.45;4.68;;;;;;;;;;5021535;28;20489;-68
2022/01/28 07:07:35;;;;;;;6.75;4.63;;;;;;;;;;5022454;28;20037;-68
2022/01/28 07:10:02;;;;;;;6.78;4.80;;;;;;;;;;5021901;28;20245;-69
2022/01/28 07:12:28;;;;;;;9.50;5.00;;;;;;;;;;5022271;28;20029;-72
2022/01/28 07:14:54;;;;;;;9.55;5.57;;;;;;;;;;5020335;28;20037;-72
2022/01/28 07:17:20;;;;;;;10.63;5.68;;;;;;;;;;5022648;28;20059;-72
2022/01/28 07:19:47;;;;;;;11.93;6.05;;;;;;;;;;5022249;28;20087;-71
2022/01/28 07:22:13;;;;;;;11.57;5.28;;;;;;;;;;5022518;28;20045;-72
2022/01/28 07:24:39;;;;;;;7.10;5.05;;;;;;;;;;5019867;28;20033;-72
2022/01/28 07:27:05;;;;;;;10.63;5.80;;;;;;;;;;5022217;28;20030;-71
2022/01/28 07:29:33;;;;;;;9.40;5.40;;;;;;;;;;5022350;28;20022;-72
2022/01/28 07:32:00;;;;;;;10.48;5.05;;;;;;;;;;5020971;28;20037;-73
2022/01/28 07:34:26;;;;;;;7.72;4.53;;;;;;;;;;5022582;28;20026;-71
2022/01/28 07:36:52;;;;;;;8.32;4.85;;;;;;;;;;5022153;28;20099;-71
2022/01/28 07:39:18;;;;;;;14.07;9.68;;;;;;;;;;5020463;28;20132;-71
2022/01/28 07:41:45;;;;;;;24.05;9.85;;;;;;;;;;5021918;28;20030;-71
2022/01/28 07:44:11;;;;;;;12.93;8.30;;;;;;;;;;5021703;28;20573;-71
2022/01/28 07:46:37;;;;;;;14.63;9.40;;;;;;;;;;5020874;28;20025;-71
2022/01/28 07:49:04;;;;;;;15.48;9.70;;;;;;;;;;5020871;28;20033;-71
2022/01/28 07:51:30;;;;;;;10.23;7.95;;;;;;;;;;5021778;28;20021;-73
2022/01/28 07:53:56;;;;;;;10.15;6.22;;;;;;;;;;5021541;28;20499;-73
2022/01/28 07:56:24;;;;;;;8.75;5.40;;;;;;;;;;5021785;28;20028;-71
2022/01/28 07:58:50;;;;;;;10.52;7.25;;;;;;;;;;5021733;28;20033;-71
2022/01/28 08:01:16;;;;;;;10.38;7.13;;;;;;;;;;5020858;28;20021;-71
2022/01/28 08:03:42;;;;;;;12.18;6.97;;;;;;;;;;5021873;28;20477;-71
2022/01/28 08:06:09;;;;;;;12.68;8.00;;;;;;;;;;5021776;28;20101;-71
2022/01/28 08:08:35;;;;;;;14.07;8.23;;;;;;;;;;5019109;28;20030;-71
2022/01/28 08:11:01;;;;;;;11.38;6.97;;;;;;;;;;5019177;28;20029;-71
2022/01/28 08:13:27;;;;;;;12.68;7.30;;;;;;;;;;5021677;28;20483;-72
2022/01/28 08:15:53;;;;;;;6.80;5.70;;;;;;;;;;5020245;28;20095;-73
2022/01/28 08:18:19;;;;;;;10.20;7.00;;;;;;;;;;5022065;28;20488;-71
2022/01/28 08:20:46;;;;;;;14.27;7.28;;;;;;;;;;5022115;28;20520;-73
2022/01/28 08:23:14;;;;;;;5.90;4.30;;;;;;;;;;5021943;28;20025;-71
2022/01/28 08:25:40;;;;;;;3.20;1.90;;;;;;;;;;5021510;28;20026;-72
2022/01/28 08:28:06;;;;;;;11.65;7.10;;;;;;;;;;5022008;28;20049;-71
2022/01/28 08:30:38;;;;;;;10.93;8.07;;;;;;;;;;5020417;28;20022;-71
2022/01/28 08:33:05;;;;;;;15.88;8.93;;;;;;;;;;5021515;28;20025;-72
2022/01/28 08:35:35;;;;;;;12.95;10.20;;;;;;;;;;5021469;28;20096;-72
2022/01/28 08:38:01;;;;;;;12.73;8.95;;;;;;;;;;5021730;28;20032;-71
2022/01/28 08:40:28;;;;;;;13.77;8.65;;;;;;;;;;5021754;28;20432;-71
2022/01/28 08:42:55;;;;;;;17.55;10.27;;;;;;;;;;5021968;28;20025;-71
2022/01/28 08:45:21;;;;;;;19.42;10.98;;;;;;;;;;5023891;28;20034;-71
2022/01/28 08:47:48;;;;;;;12.20;8.57;;;;;;;;;;5025310;28;20022;-70
2022/01/28 08:50:14;;;;;;;15.68;9.65;;;;;;;;;;5025203;28;20099;-72
2022/01/28 08:52:40;;;;;;;22.83;9.65;;;;;;;;;;5024853;28;20429;-72
2022/01/28 08:55:07;;;;;;;16.77;12.10;;;;;;;;;;5025143;28;20055;-71
2022/01/28 08:57:33;;;;;;;12.38;8.65;;;;;;;;;;5024806;28;20026;-71
2022/01/28 09:00:06;;;;;;;14.63;8.32;;;;;;;;;;5023704;28;20026;-72
2022/01/28 09:02:32;;;;;;;6.97;5.75;;;;;;;;;;5024667;28;20096;-72
2022/01/28 09:04:58;;;;;;;4.45;3.20;;;;;;;;;;5025042;28;20405;-71
2022/01/28 09:07:25;;;;;;;8.07;2.60;;;;;;;;;;5024758;28;20083;-71
2022/01/28 09:09:52;;;;;;;2.75;2.10;;;;;;;;;;5023598;28;20102;-72
2022/01/28 09:12:31;;;;;;;2.22;1.58;;;;;;;;;;5024510;28;20358;-71
2022/01/28 09:14:57;;;;;;;2.67;1.63;;;;;;;;;;5024428;28;20204;-71
2022/01/28 09:17:24;;;;;;;2.22;1.50;;;;;;;;;;5024637;28;20090;-73
2022/01/28 09:19:50;;;;;;;3.08;2.10;;;;;;;;;;5022747;28;20033;-72
2022/01/28 09:22:16;;;;;;;4.13;1.73;;;;;;;;;;5024826;28;20128;-71
2022/01/28 09:24:43;;;;;;;2.92;2.00;;;;;;;;;;5024155;28;20025;-74
2022/01/28 09:27:09;;;;;;;2.65;1.63;;;;;;;;;;5024443;28;20503;-71
2022/01/28 09:29:35;;;;;;;2.50;1.90;;;;;;;;;;5024270;28;20033;-71
2022/01/28 09:32:01;;;;;;;4.95;1.52;;;;;;;;;;5024625;28;20030;-72
2022/01/28 09:34:27;;;;;;;2.90;1.77;;;;;;;;;;5022701;28;20025;-71
2022/01/28 09:36:54;;;;;;;3.10;1.60;;;;;;;;;;5024177;28;20029;-72
2022/01/28 09:39:20;;;;;;;2.78;1.85;;;;;;;;;;5023908;28;20041;-71
2022/01/28 09:41:48;;;;;;;2.97;1.83;;;;;;;;;;5022965;28;20123;-71
2022/01/28 09:44:19;;;;;;;2.42;1.88;;;;;;;;;;5024397;28;20103;-71
2022/01/28 09:46:45;;;;;;;4.07;1.92;;;;;;;;;;5023815;28;20034;-71
2022/01/28 09:49:12;;;;;;;2.70;1.52;;;;;;;;;;5022555;28;20622;-71
2022/01/28 09:51:38;;;;;;;4.25;2.30;;;;;;;;;;5023803;28;20373;-71
2022/01/28 09:54:04;;;;;;;3.95;2.45;;;;;;;;;;5022287;28;20043;-71
2022/01/28 09:56:31;;;;;;;3.75;2.03;;;;;;;;;;5023268;28;20105;-71
2022/01/28 09:58:59;;;;;;;3.65;2.55;;;;;;;;;;5024362;28;20041;-71
2022/01/28 10:01:26;;;;;;;4.32;2.67;;;;;;;;;;5023525;28;20156;-71
2022/01/28 10:04:04;;;;;;;6.03;2.70;;;;;;;;;;5021549;28;20029;-71
2022/01/28 10:06:31;;;;;;;8.27;3.30;;;;;;;;;;5021378;28;20021;-70
2022/01/28 10:09:01;;;;;;;3.88;3.20;;;;;;;;;;5021224;28;20097;-71
2022/01/28 10:11:27;;;;;;;6.47;3.05;;;;;;;;;;5022646;28;20026;-71
2022/01/28 10:13:56;;;;;;;4.30;2.72;;;;;;;;;;5020780;28;20087;-71
2022/01/28 10:16:24;;;;;;;4.53;2.60;;;;;;;;;;5022755;28;20049;-71
2022/01/28 10:18:50;;;;;;;4.78;2.83;;;;;;;;;;5021593;28;20495;-72
2022/01/28 10:21:18;;;;;;;4.82;2.63;;;;;;;;;;5023330;28;20044;-68
2022/01/28 10:24:04;;;;;;;4.63;2.75;;;;;;;;;;5023785;28;20113;-70
2022/01/28 10:26:35;;;;;;;4.55;2.50;;;;;;;;;;4997329;28;20034;-69
2022/01/28 10:29:04;;;;;;;6.77;2.57;;;;;;;;;;5024006;28;20501;-69
2022/01/28 10:31:36;;;;;;;5.15;2.50;;;;;;;;;;5025153;28;20053;-69
2022/01/28 10:34:01;;;;;;;;;;;;;;;;;;5011582;28;20358;-69
2022/01/28 10:36:28;;;;;;;3.17;2.30;;;;;;;;;;5023237;28;19919;-69
2022/01/28 10:38:57;;;;;;;3.25;2.47;;;;;;;;;;5021670;28;20029;-71
2022/01/28 10:41:25;;;;;;;4.57;2.58;;;;;;;;;;5015632;28;20029;-70
2022/01/28 10:43:55;;;;;;;3.42;2.17;;;;;;;;;;5021713;28;20056;-70
2022/01/28 10:46:22;;;;;;;5.68;2.85;;;;;;;;;;5020867;28;20045;-70
2022/01/28 10:48:53;;;;;;;2.80;2.30;;;;;;;;;;5021059;28;20025;-70
2022/01/28 10:51:20;;;;;;;3.53;2.28;;;;;;;;;;5021687;28;20025;-69
2022/01/28 10:54:05;;;;;;;4.55;2.42;;;;;;;;;;5022085;28;20041;-70
2022/01/28 10:56:45;;;;;;;4.47;2.60;;;;;;;;;;5016183;28;20032;-71
2022/01/28 10:59:12;;;;;;;3.63;2.42;;;;;;;;;;5020480;28;20038;-70
2022/01/28 11:01:38;;;;;;;4.15;2.88;;;;;;;;;;5021899;28;20088;-71
2022/01/28 11:04:04;;;;;;;4.13;2.63;;;;;;;;;;5021468;28;20033;-70
2022/01/28 11:06:30;;;;;;;4.40;3.00;;;;;;;;;;5006967;28;20025;-70
2022/01/28 11:08:57;;;;;;;5.25;3.03;;;;;;;;;;5014964;28;20045;-70
2022/01/28 11:11:23;;;;;;;3.60;3.05;;;;;;;;;;5020437;28;20029;-71
2022/01/28 11:13:49;;;;;;;3.55;2.80;;;;;;;;;;5018711;28;20033;-70
2022/01/28 11:16:16;;;;;;;4.88;2.90;;;;;;;;;;5007519;28;20050;-70
2022/01/28 11:18:42;;;;;;;3.95;2.70;;;;;;;;;;5021650;28;20116;-71
2022/01/28 11:21:14;;;;;;;7.38;2.50;;;;;;;;;;5015994;28;20571;-71
2022/01/28 11:23:45;;;;;;;4.82;2.60;;;;;;;;;;5020720;28;20029;-71
2022/01/28 11:26:11;;;;;;;5.22;2.58;;;;;;;;;;5020237;28;20033;-71
2022/01/28 11:28:47;;;;;;;3.65;2.38;;;;;;;;;;5019772;28;20049;-71
2022/01/28 11:31:15;;;;;;;7.15;2.70;;;;;;;;;;5009320;28;20025;-72
2022/01/28 11:33:48;;;;;;;4.05;2.00;;;;;;;;;;5020873;28;20163;-72
2022/01/28 11:36:16;;;;;;;4.07;2.40;;;;;;;;;;5022496;28;20568;-71
2022/01/28 11:38:44;;;;;;;3.08;2.13;;;;;;;;;;5022283;28;20036;-71
2022/01/28 11:41:11;;;;;;;3.47;2.40;;;;;;;;;;5023811;28;20389;-72
2022/01/28 11:43:51;;;;;;;3.95;1.77;;;;;;;;;;5024977;28;20025;-72
2022/01/28 11:46:20;;;;;;;2.75;2.15;;;;;;;;;;5024860;28;20032;-72
2022/01/28 11:48:55;;;;;;;2.78;1.95;;;;;;;;;;5024421;28;20344;-71
2022/01/28 11:51:35;;;;;;;3.53;2.15;;;;;;;;;;5018166;28;20476;-72
2022/01/28 11:54:03;;;;;;;3.78;2.85;;;;;;;;;;5004430;28;20389;-72
2022/01/28 11:56:29;;;;;;;2.97;2.40;;;;;;;;;;5016948;28;20022;-70
2022/01/28 11:59:03;;;;;;;7.68;2.47;;;;;;;;;;5020672;28;20075;-71
2022/01/28 12:01:39;;;;;;;3.30;2.00;;;;;;;;;;5021137;28;20514;-71
2022/01/28 12:04:24;;;;;;;3.08;2.17;;;;;;;;;;5024505;28;20037;-71
2022/01/28 12:06:56;;;;;;;2.63;1.92;;;;;;;;;;5024338;28;20520;-70
2022/01/28 12:09:22;;;;;;;;;;;;;;;;;;5025036;28;20026;-69
2022/01/28 12:11:48;;;;;;;2.88;1.80;;;;;;;;;;5023027;28;19913;-68
2022/01/28 12:14:14;;;;;;;2.78;1.70;;;;;;;;;;5024532;28;20388;-69
2022/01/28 12:16:45;;;;;;;3.05;1.90;;;;;;;;;;5023363;28;20523;-75
2022/01/28 12:19:22;;;;;;;2.72;2.45;;;;;;;;;;5025318;28;20041;-72
2022/01/28 12:22:18;;;;;;;5.07;1.83;;;;;;;;;;5027589;28;20076;-72
2022/01/28 12:24:44;;;;;;;3.10;2.25;;;;;;;;;;5016221;28;20041;-71
2022/01/28 12:27:13;;;;;;;4.88;2.00;;;;;;;;;;5028241;28;20044;-70
2022/01/28 12:29:45;;;;;;;3.00;1.98;;;;;;;;;;5027206;28;20109;-72
2022/01/28 12:32:12;;;;;;;4.25;2.20;;;;;;;;;;5027968;28;20032;-70
2022/01/28 12:34:44;;;;;;;2.72;1.73;;;;;;;;;;5027731;28;20033;-72
2022/01/28 12:37:11;;;;;;;2.85;1.80;;;;;;;;;;5026331;28;20034;-71
2022/01/28 12:39:55;;;;;;;3.10;2.15;;;;;;;;;;5027421;28;20431;-72
2022/01/28 12:42:23;;;;;;;3.88;1.85;;;;;;;;;;5020215;28;20033;-71
2022/01/28 12:44:59;;;;;;;3.42;2.20;;;;;;;;;;5024282;28;20397;-71
2022/01/28 12:47:26;;;;;;;4.20;2.13;;;;;;;;;;5023805;28;20113;-71
2022/01/28 12:49:56;;;;;;;3.65;2.03;;;;;;;;;;5024249;28;20022;-71
2022/01/28 12:52:22;;;;;;;1.98;1.70;;;;;;;;;;5024913;28;20555;-73
2022/01/28 12:54:48;;;;;;;5.68;2.53;;;;;;;;;;5024392;28;20040;-70
2022/01/28 12:57:17;;;;;;;4.75;2.03;;;;;;;;;;5022532;28;20033;-70
2022/01/28 12:59:45;;;;;;;2.70;2.03;;;;;;;;;;5023765;28;20095;-70
2022/01/28 13:02:12;;;;;;;3.20;2.00;;;;;;;;;;5023958;28;20028;-70
2022/01/28 13:09:53;;;;;;;2.08;1.63;;;;;;;;;;5022464;28;20068;-70
2022/01/28 13:12:31;;;;;;;2.25;1.40;;;;;;;;;;5024089;28;20063;-69
2022/01/28 13:15:10;;;;;;;3.40;2.00;;;;;;;;;;5024078;28;20022;-70
2022/01/28 13:17:36;;;;;;;2.17;1.88;;;;;;;;;;5024146;28;20132;-70
2022/01/28 13:20:09;;;;;;;3.63;1.80;;;;;;;;;;5023798;28;20076;-69
2022/01/28 13:22:36;;;;;;;2.85;1.70;;;;;;;;;;5010288;28;20597;-69
2022/01/28 13:25:02;;;;;;;3.00;2.10;;;;;;;;;;5011571;28;20056;-69
2022/01/28 13:27:48;;;;;;;3.08;1.80;;;;;;;;;;5023419;28;20086;-69
2022/01/28 13:30:16;;;;;;;3.80;2.03;;;;;;;;;;5020668;28;20681;-69
2022/01/28 13:32:45;;;;;;;4.63;1.95;;;;;;;;;;5023755;28;20112;-70
2022/01/28 13:35:15;;;;;;;7.53;1.98;;;;;;;;;;5024059;28;20021;-70
2022/01/28 13:37:43;;;;;;;3.17;2.28;;;;;;;;;;5023596;28;20140;-70
2022/01/28 13:40:19;;;;;;;3.30;2.20;;;;;;;;;;5022105;28;20040;-70
2022/01/28 13:42:57;;;;;;;3.03;2.00;;;;;;;;;;5023914;28;20120;-70
2022/01/28 13:45:30;;;;;;;6.35;2.10;;;;;;;;;;5018823;28;20029;-70
2022/01/28 13:47:57;;;;;;;2.88;2.03;;;;;;;;;;5020486;28;20731;-71
2022/01/28 13:50:35;;;;;;;2.85;1.85;;;;;;;;;;5022260;28;20021;-71
2022/01/28 13:53:07;;;;;;;3.92;2.15;;;;;;;;;;5023880;28;20052;-70
2022/01/28 13:55:35;;;;;;;4.15;1.98;;;;;;;;;;5022491;28;20025;-70
2022/01/28 13:58:03;;;;;;;4.22;2.25;;;;;;;;;;5020067;28;20028;-70
2022/01/28 14:00:35;;;;;;;3.13;1.90;;;;;;;;;;5021984;28;20132;-71
2022/01/28 14:03:02;;;;;;;3.85;2.15;;;;;;;;;;5021768;28;20029;-71
2022/01/28 14:05:48;;;;;;;2.97;2.20;;;;;;;;;;5016889;28;20543;-70
2022/01/28 14:08:14;;;;;;;3.78;2.17;;;;;;;;;;5020550;28;20096;-70
2022/01/28 14:10:40;;;;;;;3.70;1.90;;;;;;;;;;5017383;28;20112;-71
2022/01/28 14:13:20;;;;;;;4.00;2.65;;;;;;;;;;5019956;28;20052;-71
2022/01/28 14:16:03;;;;;;;4.72;2.30;;;;;;;;;;5005939;28;20049;-70
2022/01/28 14:18:29;;;;;;;5.40;2.85;;;;;;;;;;5017220;28;20124;-71
2022/01/28 14:20:55;;;;;;;3.65;2.72;;;;;;;;;;5019880;28;20030;-71
2022/01/28 14:23:21;;;;;;;3.70;2.67;;;;;;;;;;5020168;28;20037;-71
2022/01/28 14:25:47;;;;;;;4.80;3.08;;;;;;;;;;5018927;28;20032;-70
2022/01/28 14:30:55;;;;;;;5.38;2.97;;;;;;;;;;5018477;28;20037;-70
2022/01/28 14:33:21;;;;;;;3.47;2.63;;;;;;;;;;5017909;28;20464;-74
2022/01/28 14:35:47;;;;;;;4.82;2.90;;;;;;;;;;5019604;28;20136;-74
2022/01/28 14:38:13;;;;;;;6.28;3.17;;;;;;;;;;5020153;28;20103;-71
2022/01/28 14:40:40;;;;;;;7.57;3.20;;;;;;;;;;5019912;28;20033;-71
2022/01/28 14:43:06;;;;;;;6.88;2.78;;;;;;;;;;5020239;28;20577;-71
2022/01/28 14:45:33;;;;;;;6.80;2.70;;;;;;;;;;5018510;28;20033;-70
2022/01/28 14:47:59;;;;;;;4.22;2.47;;;;;;;;;;5020533;28;20029;-70
2022/01/28 14:50:25;;;;;;;8.95;2.60;;;;;;;;;;5015873;28;20037;-70
2022/01/28 14:52:51;;;;;;;5.72;2.58;;;;;;;;;;5019042;28;20036;-70
2022/01/28 14:55:17;;;;;;;3.35;2.60;;;;;;;;;;5018435;28;20037;-70
2022/01/28 14:57:43;;;;;;;5.22;2.50;;;;;;;;;;5018856;28;20022;-71
2022/01/28 15:00:10;;;;;;;5.38;2.78;;;;;;;;;;5019690;28;20047;-71
2022/01/28 15:02:37;;;;;;;5.45;3.13;;;;;;;;;;5019694;28;20051;-71
2022/01/28 15:05:05;;;;;;;8.32;2.92;;;;;;;;;;5020021;28;20029;-70
2022/01/28 15:07:32;;;;;;;3.33;2.40;;;;;;;;;;5018169;28;20052;-71
2022/01/28 15:10:00;;;;;;;5.88;2.60;;;;;;;;;;5019818;28;20029;-70
2022/01/28 15:12:26;;;;;;;3.58;2.13;;;;;;;;;;5016611;28;20049;-71
2022/01/28 15:14:53;;;;;;;3.40;2.17;;;;;;;;;;5012242;28;20500;-71
2022/01/28 15:17:19;;;;;;;4.25;2.30;;;;;;;;;;5019474;28;20100;-70
2022/01/28 15:19:46;;;;;;;5.13;2.30;;;;;;;;;;5019496;28;20034;-71
2022/01/28 15:22:12;;;;;;;4.05;2.50;;;;;;;;;;5014975;28;20057;-71
2022/01/28 15:24:38;;;;;;;3.78;2.50;;;;;;;;;;5012701;28;20034;-71
2022/01/28 15:27:05;;;;;;;4.32;2.50;;;;;;;;;;5000803;28;20030;-70
2022/01/28 15:37:11;;;;;;;5.28;3.05;;;;;;;;;;5018307;28;20108;-70
2022/01/28 15:39:37;;;;;;;3.28;2.70;;;;;;;;;;5018650;28;20033;-71
2022/01/28 15:42:08;;;;;;;5.72;2.53;;;;;;;;;;5012218;28;20653;-70
2022/01/28 15:44:35;;;;;;;2.65;2.45;;;;;;;;;;5019228;28;20073;-70
2022/01/28 15:47:03;;;;;;;3.20;2.13;;;;;;;;;;5017539;28;20037;-70
2022/01/28 15:49:29;;;;;;;3.75;2.00;;;;;;;;;;5010372;28;20527;-71
2022/01/28 15:51:56;;;;;;;3.97;2.20;;;;;;;;;;5019851;28;20034;-71
2022/01/28 15:54:22;;;;;;;4.00;2.58;;;;;;;;;;5019867;28;20033;-71
2022/01/28 15:56:48;;;;;;;4.40;2.03;;;;;;;;;;5012733;28;20824;-71
2022/01/28 15:59:14;;;;;;;4.20;3.05;;;;;;;;;;5021585;28;20535;-71
2022/01/28 16:01:41;;;;;;;3.30;2.80;;;;;;;;;;5023159;28;20039;-71
2022/01/28 16:04:07;;;;;;;5.90;2.92;;;;;;;;;;5023674;28;20030;-71
2022/01/28 16:06:37;;;;;;;7.97;4.28;;;;;;;;;;5021252;28;20037;-71
2022/01/28 16:09:04;;;;;;;7.43;4.20;;;;;;;;;;5022663;28;20034;-70
2022/01/28 16:11:34;;;;;;;4.43;2.55;;;;;;;;;;5018165;28;20112;-71
2022/01/28 16:19:47;;;;;;;5.85;2.53;;;;;;;;;;5022419;28;20648;-70
2022/01/28 16:22:13;;;;;;;6.57;2.95;;;;;;;;;;5021233;28;20075;-71
2022/01/28 16:24:40;;;;;;;6.55;1.80;;;;;;;;;;5020166;28;20428;-71
2022/01/28 16:27:06;;;;;;;5.35;2.88;;;;;;;;;;5022182;28;20033;-70
2022/01/28 16:29:34;;;;;;;4.13;2.72;;;;;;;;;;5021523;28;20497;-71
2022/01/28 16:32:00;;;;;;;3.63;2.60;;;;;;;;;;5018671;28;20732;-70